EmailTwitter


Observations de surface / France / LFMK (07635)

Régions: Québec | Canada | États-Unis | Europe | France | UK | Ailleurs
Station
Affichage
Infos & localisation pour LFMK (07635) | Aide pour décoder les METARs

Observations prises le 2017-09-23 à 04H30 UTC à CARCASSONNE/SALV, FR (LFMK)

Température: 13.0 Celsius

Point de rosée: 10.0 Celsius

Humidité relative: 82%

Vents: Nord-ouest à 6 km/h ou 3 noeuds.

Pression au niveau moyen de la mer: 102.10 kilopascals.

Observation METAR:

LFMK 230430Z AUTO 33003KT CAVOK 13/10 Q1021 TEMPO BKN005 =